Time;durP1;ratioP1;P1;durP2;ratioP2;P2;SDS_P1;SDS_P2;PMS_P1;PMS_P2;Temp;Humidity;BMP_temperature;BMP_pressure;BME280_temperature;BME280_humidity;BME280_pressure;Samples;Min_cycle;Max_cycle;Signal;HPM_P1;HPM_P2
2023/04/24 00:00:06;;;;;;;3.42;1.70;;;10.50;99.90;;;;;;5016081;28;20064;-79
2023/04/24 00:02:32;;;;;;;4.18;2.13;;;10.40;99.90;;;;;;5015919;28;20183;-79
2023/04/24 00:05:02;;;;;;;4.20;1.95;;;10.40;99.90;;;;;;5016188;28;20401;-79
2023/04/24 00:07:31;;;;;;;4.00;2.28;;;10.30;99.90;;;;;;5015944;28;20153;-79
2023/04/24 00:09:57;;;;;;;4.65;2.60;;;10.30;99.90;;;;;;5016038;28;20057;-79
2023/04/24 00:12:23;;;;;;;4.50;2.60;;;10.30;99.90;;;;;;5015335;28;20056;-79
2023/04/24 00:14:49;;;;;;;4.38;2.90;;;10.30;99.90;;;;;;5015991;28;20478;-78
2023/04/24 00:17:15;;;;;;;4.90;2.97;;;10.30;99.90;;;;;;5016024;28;20049;-79
2023/04/24 00:19:41;;;;;;;5.20;3.28;;;10.30;99.90;;;;;;4999652;28;20060;-78
2023/04/24 00:22:07;;;;;;;4.90;3.35;;;10.20;99.90;;;;;;5015592;28;20077;-79
2023/04/24 00:24:32;;;;;;;4.95;3.40;;;10.20;99.90;;;;;;4999127;28;20099;-80
2023/04/24 00:27:02;;;;;;;5.10;3.53;;;10.20;99.90;;;;;;4999603;28;20049;-80
2023/04/24 00:29:28;;;;;;;5.80;4.03;;;10.20;99.90;;;;;;5016194;28;20056;-79
2023/04/24 00:31:54;;;;;;;5.80;4.00;;;10.10;99.90;;;;;;5015561;28;20408;-79
2023/04/24 00:34:20;;;;;;;5.90;4.20;;;10.10;99.90;;;;;;5015651;28;20061;-80
2023/04/24 00:36:46;;;;;;;6.18;4.10;;;10.10;99.90;;;;;;4999569;28;20382;-79
2023/04/24 00:39:11;;;;;;;5.72;4.00;;;10.10;99.90;;;;;;4999043;28;20218;-79
2023/04/24 00:41:37;;;;;;;6.20;4.38;;;10.10;99.90;;;;;;4999453;28;20069;-79
2023/04/24 00:44:03;;;;;;;5.68;4.28;;;10.10;99.90;;;;;;5015782;28;20489;-79
2023/04/24 00:46:29;;;;;;;5.60;3.97;;;10.10;99.90;;;;;;5015507;28;20045;-79
2023/04/24 00:48:56;;;;;;;6.00;3.80;;;10.10;99.90;;;;;;4999543;28;20393;-79
2023/04/24 00:51:24;;;;;;;5.72;3.63;;;10.10;99.90;;;;;;5015068;28;20049;-78
2023/04/24 00:53:51;;;;;;;5.15;3.15;;;10.10;99.90;;;;;;5015758;28;20404;-78
2023/04/24 00:56:17;;;;;;;5.30;2.97;;;10.10;99.90;;;;;;5015191;28;20060;-79
2023/04/24 00:58:43;;;;;;;5.38;3.50;;;10.10;99.90;;;;;;4999603;28;20057;-79
2023/04/24 01:01:11;;;;;;;4.93;2.83;;;10.00;99.90;;;;;;5015570;28;20104;-78
2023/04/24 01:03:37;;;;;;;5.75;3.15;;;10.00;99.90;;;;;;5015342;28;20053;-79
2023/04/24 01:06:05;;;;;;;5.28;2.88;;;9.90;99.90;;;;;;4999173;28;20100;-80
2023/04/24 01:08:31;;;;;;;5.80;3.05;;;9.90;99.90;;;;;;5015303;28;20128;-79
2023/04/24 01:10:57;;;;;;;5.45;3.08;;;9.90;99.90;;;;;;5015657;28;20045;-79
2023/04/24 01:13:23;;;;;;;5.60;3.42;;;9.80;99.90;;;;;;5015507;28;20056;-79
2023/04/24 01:15:49;;;;;;;4.68;2.90;;;9.80;99.90;;;;;;5015416;28;20049;-79
2023/04/24 01:18:15;;;;;;;6.80;3.72;;;9.80;99.90;;;;;;5015231;28;20132;-79
2023/04/24 01:20:44;;;;;;;5.82;3.70;;;9.80;99.90;;;;;;5015530;28;20386;-80
2023/04/24 01:23:10;;;;;;;4.93;3.60;;;9.70;99.90;;;;;;5015245;28;20456;-79
2023/04/24 01:25:36;;;;;;;5.22;3.20;;;9.70;99.90;;;;;;5018421;28;20111;-78
2023/04/24 01:28:03;;;;;;;5.55;3.38;;;9.70;99.90;;;;;;5019154;28;20503;-78
2023/04/24 01:30:29;;;;;;;6.10;4.05;;;9.70;99.90;;;;;;5002802;28;20076;-78
2023/04/24 01:32:55;;;;;;;5.32;3.97;;;9.70;99.90;;;;;;5035087;28;20045;-78
2023/04/24 01:35:22;;;;;;;6.13;3.80;;;9.70;99.90;;;;;;4985998;28;20076;-79
2023/04/24 01:37:47;;;;;;;5.07;3.70;;;9.70;99.90;;;;;;5018564;28;20068;-78
2023/04/24 01:40:13;;;;;;;6.60;4.03;;;9.70;99.90;;;;;;5018764;28;20053;-79
2023/04/24 01:42:41;;;;;;;5.78;4.00;;;9.70;99.90;;;;;;5018589;28;20408;-79
2023/04/24 01:45:10;;;;;;;5.55;4.28;;;9.70;99.90;;;;;;5018731;28;20076;-79
2023/04/24 01:47:36;;;;;;;6.30;4.90;;;9.70;99.90;;;;;;5018524;28;20058;-79
2023/04/24 01:50:03;;;;;;;6.07;4.30;;;9.60;99.90;;;;;;5001803;28;20053;-79
2023/04/24 01:52:31;;;;;;;5.97;4.60;;;9.70;99.90;;;;;;5018484;28;20049;-79
2023/04/24 01:54:59;;;;;;;7.55;4.50;;;9.60;99.90;;;;;;5002032;28;20062;-78
2023/04/24 01:57:25;;;;;;;7.78;5.00;;;9.70;99.90;;;;;;5018388;28;20378;-79
2023/04/24 01:59:51;;;;;;;7.25;4.90;;;9.60;99.90;;;;;;5002269;28;20060;-79
2023/04/24 02:02:18;;;;;;;6.47;5.07;;;9.60;99.90;;;;;;5018298;28;20092;-78
2023/04/24 02:04:43;;;;;;;7.07;5.45;;;9.60;99.90;;;;;;5018136;28;20057;-79
2023/04/24 02:07:10;;;;;;;6.93;5.43;;;9.60;99.90;;;;;;5001789;28;20563;-79
2023/04/24 02:09:35;;;;;;;7.97;6.38;;;9.60;99.90;;;;;;5017870;28;20056;-79
2023/04/24 02:12:01;;;;;;;10.90;6.75;;;9.60;99.90;;;;;;5001860;28;20045;-78
2023/04/24 02:14:27;;;;;;;10.52;7.03;;;9.60;99.90;;;;;;5018127;28;20470;-78
2023/04/24 02:16:53;;;;;;;8.98;7.15;;;9.60;99.90;;;;;;5001619;28;20053;-78
2023/04/24 02:19:19;;;;;;;10.98;8.35;;;9.60;99.90;;;;;;5017896;28;20080;-78
2023/04/24 02:21:45;;;;;;;9.93;8.07;;;9.60;99.90;;;;;;5017852;28;20053;-78
2023/04/24 02:24:10;;;;;;;10.13;9.02;;;9.60;99.90;;;;;;5017832;28;20103;-78
2023/04/24 02:26:36;;;;;;;10.32;9.00;;;9.60;99.90;;;;;;5017571;28;20079;-79
2023/04/24 02:29:02;;;;;;;11.82;9.90;;;9.60;99.90;;;;;;5017545;28;20056;-79
2023/04/24 02:31:28;;;;;;;11.55;9.30;;;9.60;99.90;;;;;;5017565;28;20049;-79
2023/04/24 02:33:53;;;;;;;12.40;9.75;;;9.60;99.90;;;;;;5017705;28;20037;-80
2023/04/24 02:36:19;;;;;;;11.43;10.10;;;9.50;99.90;;;;;;5016333;28;20488;-79
2023/04/24 02:38:45;;;;;;;12.27;10.35;;;9.50;99.90;;;;;;5001389;28;20481;-80
2023/04/24 02:41:11;;;;;;;11.32;9.63;;;9.50;99.90;;;;;;5001499;28;20166;-79
2023/04/24 02:43:36;;;;;;;9.68;8.57;;;9.50;99.90;;;;;;5017538;28;20052;-78
2023/04/24 02:46:02;;;;;;;13.20;10.52;;;9.50;99.90;;;;;;5017364;28;20132;-79
2023/04/24 02:48:28;;;;;;;10.40;9.18;;;9.50;99.90;;;;;;5016905;28;20049;-79
2023/04/24 02:50:54;;;;;;;10.15;8.68;;;9.60;99.90;;;;;;5017429;28;20049;-79
2023/04/24 02:53:20;;;;;;;12.65;10.02;;;9.60;99.90;;;;;;5000961;28;20474;-79
2023/04/24 02:55:46;;;;;;;10.15;9.05;;;9.50;99.90;;;;;;5016772;28;20049;-79
2023/04/24 02:58:12;;;;;;;10.63;9.25;;;9.50;99.90;;;;;;5017234;28;20053;-79
2023/04/24 03:00:39;;;;;;;11.00;8.70;;;9.50;99.90;;;;;;5017377;28;20141;-79
2023/04/24 03:03:05;;;;;;;10.00;8.02;;;9.60;99.90;;;;;;5016996;28;20401;-79
2023/04/24 03:05:31;;;;;;;11.00;9.40;;;9.50;99.90;;;;;;5017141;28;20057;-80
2023/04/24 03:07:57;;;;;;;10.95;9.20;;;9.50;99.90;;;;;;5016700;28;20100;-80
2023/04/24 03:10:22;;;;;;;9.73;8.02;;;9.50;99.90;;;;;;5017140;28;20053;-79
2023/04/24 03:12:49;;;;;;;10.20;8.27;;;9.50;99.90;;;;;;5016770;28;20485;-80
2023/04/24 03:15:15;;;;;;;9.55;8.55;;;9.50;99.90;;;;;;5000605;28;20037;-80
2023/04/24 03:17:41;;;;;;;9.77;8.38;;;9.40;99.90;;;;;;5000740;28;20060;-80
2023/04/24 03:20:08;;;;;;;9.60;8.18;;;9.40;99.90;;;;;;5000608;28;20057;-81
2023/04/24 03:22:34;;;;;;;10.25;8.20;;;9.40;99.90;;;;;;5016956;28;20060;-80
2023/04/24 03:25:00;;;;;;;10.57;8.32;;;9.40;99.90;;;;;;5016270;28;20566;-81
2023/04/24 03:27:26;;;;;;;10.75;8.18;;;9.40;99.90;;;;;;5033170;28;20084;-80
2023/04/24 03:29:55;;;;;;;10.57;7.82;;;9.40;99.90;;;;;;5016736;28;20139;-81
2023/04/24 03:32:22;;;;;;;9.05;7.20;;;9.40;99.90;;;;;;5016523;28;20099;-80
2023/04/24 03:34:51;;;;;;;10.82;7.65;;;9.40;99.90;;;;;;5015893;28;20054;-80
2023/04/24 03:37:17;;;;;;;10.32;8.10;;;9.40;99.90;;;;;;5000229;28;20041;-80
2023/04/24 03:39:43;;;;;;;10.20;8.52;;;9.30;99.90;;;;;;5016053;28;20056;-80
2023/04/24 03:42:09;;;;;;;12.32;8.82;;;9.30;99.90;;;;;;5016548;28;20057;-80
2023/04/24 03:44:35;;;;;;;9.52;8.05;;;9.30;99.90;;;;;;4999684;28;20049;-79
2023/04/24 03:47:01;;;;;;;9.82;7.80;;;9.40;99.90;;;;;;4999816;28;20060;-80
2023/04/24 03:49:27;;;;;;;10.52;8.85;;;9.40;99.90;;;;;;5000212;28;20099;-80
2023/04/24 03:51:53;;;;;;;10.98;8.70;;;9.30;99.90;;;;;;4983715;28;20049;-80
2023/04/24 03:54:19;;;;;;;10.52;8.98;;;9.30;99.90;;;;;;5016160;28;20053;-80
2023/04/24 03:56:45;;;;;;;11.73;9.25;;;9.30;99.90;;;;;;5016447;28;20055;-79
2023/04/24 03:59:11;;;;;;;11.15;9.30;;;9.40;99.90;;;;;;4999982;28;20049;-79
2023/04/24 04:01:37;;;;;;;10.77;9.00;;;9.30;99.90;;;;;;4999644;28;20092;-80
2023/04/24 04:04:04;;;;;;;11.40;9.90;;;9.40;99.90;;;;;;5015922;28;20099;-80
2023/04/24 04:06:30;;;;;;;12.68;9.57;;;9.30;99.90;;;;;;5016128;28;20071;-81
2023/04/24 04:08:57;;;;;;;11.23;8.73;;;9.30;99.90;;;;;;5032573;28;20124;-81
2023/04/24 04:11:23;;;;;;;11.38;10.07;;;9.30;99.90;;;;;;5016211;28;20057;-81
2023/04/24 04:13:49;;;;;;;11.50;9.07;;;9.30;99.90;;;;;;4983745;28;20049;-80
2023/04/24 04:16:17;;;;;;;11.82;9.57;;;9.30;99.90;;;;;;4983562;28;20080;-81
2023/04/24 04:18:46;;;;;;;11.00;9.18;;;9.30;99.90;;;;;;5015952;28;20048;-81
2023/04/24 04:21:12;;;;;;;12.70;8.93;;;9.40;99.90;;;;;;5015836;28;20053;-81
2023/04/24 04:23:37;;;;;;;11.65;9.60;;;9.30;99.90;;;;;;4999355;28;20072;-80
2023/04/24 04:26:04;;;;;;;11.63;9.85;;;9.30;99.90;;;;;;5015928;28;20076;-81
2023/04/24 04:28:31;;;;;;;12.07;9.30;;;9.40;99.90;;;;;;5015677;28;20125;-81
2023/04/24 04:30:57;;;;;;;10.52;8.48;;;9.40;99.90;;;;;;4999785;28;20142;-80
2023/04/24 04:33:24;;;;;;;11.75;9.57;;;9.40;99.90;;;;;;5015920;28;20045;-81
2023/04/24 04:35:56;;;;;;;11.15;8.73;;;9.40;99.90;;;;;;5015463;28;20140;-80
2023/04/24 04:38:22;;;;;;;;;;;9.40;99.90;;;;;;5016043;28;20515;-80
2023/04/24 04:40:47;;;;;;;12.23;9.63;;;9.40;99.90;;;;;;5015790;28;19921;-81
2023/04/24 04:43:14;;;;;;;11.32;9.65;;;9.30;99.90;;;;;;5015505;28;20393;-81
2023/04/24 04:45:42;;;;;;;12.57;9.73;;;9.40;99.90;;;;;;5015556;28;20120;-81
2023/04/24 04:48:09;;;;;;;11.20;9.35;;;9.30;99.90;;;;;;5015839;28;20057;-80
2023/04/24 04:50:38;;;;;;;12.45;10.27;;;9.30;99.90;;;;;;5032214;28;20049;-81
2023/04/24 04:53:04;;;;;;;12.23;9.68;;;9.30;99.90;;;;;;5015693;28;20045;-80
2023/04/24 04:55:30;;;;;;;11.90;9.95;;;9.30;99.90;;;;;;5015435;28;20054;-80
2023/04/24 04:57:56;;;;;;;11.98;9.85;;;9.30;99.90;;;;;;5015920;28;20500;-81
2023/04/24 05:00:25;;;;;;;11.55;8.70;;;9.30;99.90;;;;;;5019008;28;20049;-80
2023/04/24 05:02:51;;;;;;;11.38;9.18;;;9.30;99.90;;;;;;5003166;28;20053;-80
2023/04/24 05:05:17;;;;;;;11.38;9.27;;;9.40;99.90;;;;;;5035667;28;20046;-80
2023/04/24 05:07:43;;;;;;;10.82;8.82;;;9.30;99.90;;;;;;5003173;28;20052;-79
2023/04/24 05:10:10;;;;;;;11.02;9.10;;;9.30;99.90;;;;;;5019140;28;20531;-79
2023/04/24 05:12:36;;;;;;;10.45;7.97;;;9.30;99.90;;;;;;5035586;28;20409;-79
2023/04/24 05:15:02;;;;;;;11.68;9.82;;;9.40;99.90;;;;;;5019256;28;20057;-79
2023/04/24 05:17:28;;;;;;;12.77;10.10;;;9.30;99.90;;;;;;5019237;28;20596;-78
2023/04/24 05:19:54;;;;;;;11.05;8.93;;;9.30;99.90;;;;;;5002735;28;20112;-79
2023/04/24 05:22:21;;;;;;;11.70;8.75;;;9.30;99.90;;;;;;5018882;28;20081;-78
2023/04/24 05:24:47;;;;;;;12.07;8.85;;;9.40;99.90;;;;;;5018858;28;20085;-79
2023/04/24 05:27:13;;;;;;;11.95;8.20;;;9.40;99.90;;;;;;5018841;28;20061;-79
2023/04/24 05:29:39;;;;;;;9.98;7.95;;;9.40;99.90;;;;;;5019197;28;20053;-79
2023/04/24 05:32:06;;;;;;;10.98;9.45;;;9.40;99.90;;;;;;5019008;28;20049;-80
2023/04/24 05:34:32;;;;;;;10.75;8.55;;;9.40;99.90;;;;;;5002618;28;20054;-79
2023/04/24 05:36:58;;;;;;;11.02;8.43;;;9.50;99.90;;;;;;5018974;28;20053;-80
2023/04/24 05:39:24;;;;;;;8.55;6.78;;;9.40;99.90;;;;;;5018771;28;20072;-80
2023/04/24 05:41:51;;;;;;;9.48;8.05;;;9.50;99.90;;;;;;5018614;28;20064;-80
2023/04/24 05:44:16;;;;;;;8.90;6.95;;;9.50;99.90;;;;;;5018649;28;20049;-79
2023/04/24 05:46:42;;;;;;;7.57;6.28;;;9.50;99.90;;;;;;5001810;28;20132;-80
2023/04/24 05:49:08;;;;;;;7.57;5.80;;;9.50;99.90;;;;;;5018435;28;20057;-80
2023/04/24 05:51:34;;;;;;;7.60;5.90;;;9.60;99.90;;;;;;5002318;28;20080;-79
2023/04/24 05:54:01;;;;;;;8.57;6.03;;;9.60;99.90;;;;;;5018645;28;20080;-79
2023/04/24 05:56:26;;;;;;;10.35;6.80;;;9.60;99.90;;;;;;5018654;28;20135;-79
2023/04/24 05:58:52;;;;;;;7.50;5.60;;;9.50;99.90;;;;;;5018392;28;20516;-79
2023/04/24 06:01:19;;;;;;;7.72;6.30;;;9.50;99.90;;;;;;5018139;28;20064;-80
2023/04/24 06:03:45;;;;;;;7.38;5.57;;;9.50;99.90;;;;;;5018315;28;20061;-80
2023/04/24 06:06:11;;;;;;;7.22;5.50;;;9.50;99.90;;;;;;5018306;28;20049;-80
2023/04/24 06:08:36;;;;;;;7.57;5.00;;;9.60;99.90;;;;;;5001931;28;20504;-80
2023/04/24 06:11:02;;;;;;;7.38;5.30;;;9.50;99.90;;;;;;5017019;28;20130;-80
2023/04/24 06:13:28;;;;;;;7.95;5.53;;;9.60;99.90;;;;;;5018112;28;20132;-80
2023/04/24 06:15:54;;;;;;;8.50;5.72;;;9.60;99.90;;;;;;5018103;28;20041;-79
2023/04/24 06:18:20;;;;;;;7.90;5.65;;;9.50;99.90;;;;;;5001752;28;20464;-80
2023/04/24 06:20:46;;;;;;;8.65;5.57;;;9.60;99.90;;;;;;5035395;28;20120;-79
2023/04/24 06:23:12;;;;;;;8.07;5.72;;;9.60;99.90;;;;;;5017680;28;20049;-79
2023/04/24 06:25:38;;;;;;;6.78;4.65;;;9.60;99.90;;;;;;5001697;28;20444;-79
2023/04/24 06:28:04;;;;;;;7.35;4.40;;;9.60;99.90;;;;;;5017572;28;20049;-80
2023/04/24 06:30:31;;;;;;;6.65;4.40;;;9.60;99.90;;;;;;5018034;28;20370;-80
2023/04/24 06:32:56;;;;;;;5.32;3.70;;;9.60;99.90;;;;;;5017832;28;20127;-79
2023/04/24 06:35:23;;;;;;;6.43;3.90;;;9.60;99.90;;;;;;5017537;28;20053;-79
2023/04/24 06:37:48;;;;;;;5.65;3.60;;;9.60;99.90;;;;;;5034282;28;20062;-79
2023/04/24 06:40:14;;;;;;;6.05;3.65;;;9.60;99.90;;;;;;5017376;28;20057;-80
2023/04/24 06:42:40;;;;;;;5.55;3.40;;;9.60;99.90;;;;;;5017438;28;20064;-79
2023/04/24 06:45:06;;;;;;;5.32;3.42;;;9.70;99.90;;;;;;5017702;28;20370;-79
2023/04/24 06:47:32;;;;;;;6.97;4.13;;;9.60;99.90;;;;;;5017521;28;20064;-79
2023/04/24 06:49:58;;;;;;;6.55;3.97;;;9.60;99.90;;;;;;5017619;28;20058;-79
2023/04/24 06:52:24;;;;;;;5.68;3.33;;;9.60;99.90;;;;;;5017565;28;20053;-79
2023/04/24 06:54:50;;;;;;;5.97;3.60;;;9.60;99.90;;;;;;5017139;28;20468;-79
2023/04/24 06:57:16;;;;;;;6.07;3.70;;;9.70;99.90;;;;;;5001185;28;20054;-79
2023/04/24 06:59:42;;;;;;;6.57;3.97;;;9.70;99.90;;;;;;5000939;28;20061;-79
2023/04/24 07:02:08;;;;;;;7.22;4.15;;;9.70;99.90;;;;;;5016983;28;20042;-79
2023/04/24 07:04:34;;;;;;;5.93;3.65;;;9.70;99.90;;;;;;5017255;28;20151;-79
2023/04/24 07:07:00;;;;;;;6.45;4.03;;;9.70;99.90;;;;;;5016917;28;20049;-80
2023/04/24 07:09:27;;;;;;;7.35;4.10;;;9.70;99.90;;;;;;5017404;28;20057;-80
2023/04/24 07:11:53;;;;;;;7.07;4.45;;;9.70;99.90;;;;;;5000665;28;20061;-80
2023/04/24 07:14:19;;;;;;;6.55;3.75;;;9.80;99.90;;;;;;5017079;28;20103;-79
2023/04/24 07:16:45;;;;;;;7.72;4.30;;;9.80;99.90;;;;;;5000508;28;20060;-79
2023/04/24 07:19:13;;;;;;;5.22;3.20;;;9.90;99.90;;;;;;5000686;28;20049;-79
2023/04/24 07:21:40;;;;;;;6.40;3.67;;;9.80;99.90;;;;;;5016506;28;20140;-78
2023/04/24 07:24:09;;;;;;;5.72;3.17;;;9.90;99.90;;;;;;5016996;28;20398;-79
2023/04/24 07:26:35;;;;;;;5.85;3.90;;;10.00;99.90;;;;;;5000978;28;20064;-79
2023/04/24 07:29:01;;;;;;;6.40;3.40;;;10.00;99.90;;;;;;5016822;28;20045;-79
2023/04/24 07:31:26;;;;;;;5.47;3.38;;;10.00;99.90;;;;;;5006247;28;20045;-79
2023/04/24 07:33:52;;;;;;;5.68;3.80;;;10.00;99.90;;;;;;5028725;28;20085;-79
2023/04/24 07:36:19;;;;;;;5.50;3.08;;;10.10;99.90;;;;;;5014114;28;20489;-78
2023/04/24 07:38:48;;;;;;;5.60;3.72;;;10.10;99.90;;;;;;5016641;28;20100;-78
2023/04/24 07:41:14;;;;;;;6.00;3.28;;;10.10;99.90;;;;;;4999735;28;20058;-78
2023/04/24 07:43:40;;;;;;;4.70;2.70;;;10.20;99.90;;;;;;5015089;28;20116;-78
2023/04/24 07:46:07;;;;;;;4.90;2.90;;;10.20;99.90;;;;;;5000234;28;20049;-78
2023/04/24 07:48:33;;;;;;;4.55;2.53;;;10.20;99.90;;;;;;4983970;28;20045;-78
2023/04/24 07:50:58;;;;;;;5.60;3.10;;;10.20;99.90;;;;;;5016539;28;20111;-78
2023/04/24 07:53:24;;;;;;;5.85;3.13;;;10.30;99.90;;;;;;5016348;28;20049;-78
2023/04/24 07:55:50;;;;;;;5.40;3.00;;;10.30;99.90;;;;;;5000046;28;20052;-77
2023/04/24 07:58:19;;;;;;;5.43;3.42;;;10.30;99.90;;;;;;5016362;28;20084;-78
2023/04/24 08:00:45;;;;;;;5.82;3.42;;;10.30;99.90;;;;;;5000099;28;20056;-78
2023/04/24 08:03:12;;;;;;;6.00;3.78;;;10.30;99.90;;;;;;5016070;28;20388;-77
2023/04/24 08:05:38;;;;;;;5.43;3.50;;;10.30;99.90;;;;;;5016023;28;20049;-78
2023/04/24 08:08:04;;;;;;;6.45;3.25;;;10.40;99.90;;;;;;4999768;28;20056;-78
2023/04/24 08:10:29;;;;;;;5.78;3.08;;;10.30;99.90;;;;;;5015914;28;20053;-78
2023/04/24 08:12:55;;;;;;;9.07;3.47;;;10.30;99.90;;;;;;5015862;28;20050;-78
2023/04/24 08:15:21;;;;;;;7.65;3.97;;;10.30;99.90;;;;;;4999575;28;20401;-78
2023/04/24 08:17:47;;;;;;;6.97;4.30;;;10.30;99.90;;;;;;5015749;28;20049;-78
2023/04/24 08:20:13;;;;;;;6.82;3.92;;;10.20;99.90;;;;;;5016045;28;20053;-77
2023/04/24 08:22:40;;;;;;;6.28;3.42;;;10.30;99.90;;;;;;5015849;28;20041;-78
2023/04/24 08:25:09;;;;;;;6.45;3.33;;;10.30;99.90;;;;;;5016077;28;20053;-77
2023/04/24 08:27:39;;;;;;;6.68;3.30;;;10.30;99.90;;;;;;5016569;28;20052;-78
2023/04/24 08:30:06;;;;;;;6.68;3.00;;;10.30;99.90;;;;;;5015900;28;20042;-78
2023/04/24 08:32:32;;;;;;;5.53;3.10;;;10.40;99.90;;;;;;4999856;28;20543;-78
2023/04/24 08:34:58;;;;;;;6.75;3.22;;;10.40;99.90;;;;;;5018375;28;20053;-78
2023/04/24 08:37:26;;;;;;;6.20;3.00;;;10.40;99.90;;;;;;5019768;28;20064;-78
2023/04/24 08:39:52;;;;;;;6.38;2.70;;;10.40;99.90;;;;;;5019963;28;20092;-78
2023/04/24 08:42:19;;;;;;;6.38;2.70;;;10.40;99.90;;;;;;4992759;28;20080;-78
2023/04/24 08:44:45;;;;;;;7.95;2.80;;;10.30;99.90;;;;;;5019486;28;20100;-78
2023/04/24 08:47:15;;;;;;;7.80;2.83;;;10.30;99.90;;;;;;5022669;28;20057;-79
2023/04/24 08:49:40;;;;;;;7.80;2.88;;;10.30;99.90;;;;;;5039541;28;20051;-78
2023/04/24 08:52:06;;;;;;;7.60;3.08;;;10.30;99.90;;;;;;5039309;28;20048;-79
2023/04/24 08:54:36;;;;;;;9.80;3.22;;;10.30;99.90;;;;;;5039487;28;20520;-79
2023/04/24 08:57:03;;;;;;;6.75;3.15;;;10.30;99.90;;;;;;5022889;28;20049;-79
2023/04/24 08:59:30;;;;;;;8.60;3.67;;;10.30;99.90;;;;;;5039544;28;20057;-79
2023/04/24 09:01:57;;;;;;;8.68;4.28;;;10.30;99.90;;;;;;5039178;28;20052;-79
2023/04/24 09:04:24;;;;;;;12.45;5.18;;;10.20;99.90;;;;;;5022791;28;20044;-79
2023/04/24 09:06:58;;;;;;;13.00;6.55;;;10.20;99.90;;;;;;5039283;28;20045;-79
2023/04/24 09:09:25;;;;;;;13.93;7.72;;;10.20;99.90;;;;;;5039340;28;20165;-79
2023/04/24 09:11:54;;;;;;;14.07;9.13;;;10.20;99.90;;;;;;5019146;28;20045;-79
2023/04/24 09:14:20;;;;;;;18.25;10.40;;;10.20;99.90;;;;;;5016698;28;20458;-79
2023/04/24 09:16:47;;;;;;;17.48;11.40;;;10.30;99.90;;;;;;5019265;28;20374;-80
2023/04/24 09:19:13;;;;;;;17.92;11.55;;;10.30;99.90;;;;;;5019263;28;20085;-80
2023/04/24 09:21:40;;;;;;;17.38;11.02;;;10.40;99.90;;;;;;5002668;28;20045;-79
2023/04/24 09:24:08;;;;;;;17.98;11.60;;;10.40;99.90;;;;;;5035528;28;20120;-80
2023/04/24 09:26:37;;;;;;;17.15;10.85;;;10.30;99.90;;;;;;5016951;28;20084;-80
2023/04/24 09:29:04;;;;;;;17.20;12.00;;;10.20;99.90;;;;;;5017203;28;20045;-79
2023/04/24 09:31:30;;;;;;;18.63;12.05;;;10.20;99.90;;;;;;5018450;28;20501;-79
2023/04/24 09:34:03;;;;;;;18.65;12.15;;;10.30;99.90;;;;;;5018660;28;20049;-79
2023/04/24 09:36:28;;;;;;;18.15;12.00;;;10.30;99.90;;;;;;5002188;28;20451;-79
2023/04/24 09:38:59;;;;;;;18.25;11.73;;;10.20;99.90;;;;;;5018915;28;20049;-79
2023/04/24 09:41:26;;;;;;;18.05;12.43;;;10.20;99.90;;;;;;5018819;28;20051;-79
2023/04/24 09:43:55;;;;;;;19.25;13.52;;;10.10;99.90;;;;;;5002373;28;20053;-79
2023/04/24 09:46:22;;;;;;;20.58;13.75;;;10.00;99.90;;;;;;5018439;28;20187;-79
2023/04/24 09:48:48;;;;;;;22.15;14.70;;;9.90;99.90;;;;;;5002413;28;20485;-79
2023/04/24 09:51:15;;;;;;;24.60;15.70;;;9.90;99.90;;;;;;5002467;28;20045;-79
2023/04/24 09:53:46;;;;;;;23.05;16.33;;;9.80;99.90;;;;;;5018286;28;20060;-79
2023/04/24 09:56:12;;;;;;;24.23;16.83;;;9.80;99.90;;;;;;5001888;28;20045;-79
2023/04/24 09:58:39;;;;;;;25.10;17.40;;;9.80;99.90;;;;;;5018184;28;20045;-79
2023/04/24 10:01:05;;;;;;;23.27;16.55;;;9.80;99.90;;;;;;5002019;28;20054;-79
2023/04/24 10:03:33;;;;;;;23.92;17.75;;;9.80;99.90;;;;;;5018082;28;20124;-79
2023/04/24 10:06:08;;;;;;;25.10;17.90;;;9.80;99.90;;;;;;5018235;28;20053;-79
2023/04/24 10:08:35;;;;;;;25.02;17.08;;;9.80;99.90;;;;;;5001771;28;20476;-80
2023/04/24 10:11:01;;;;;;;24.63;16.83;;;9.80;99.90;;;;;;5018071;28;20053;-80
2023/04/24 10:13:28;;;;;;;22.95;17.48;;;9.80;99.90;;;;;;4986128;28;20473;-80
2023/04/24 10:15:54;;;;;;;25.00;16.45;;;9.80;99.90;;;;;;5018182;28;20103;-80
2023/04/24 10:18:21;;;;;;;21.17;15.50;;;9.80;99.90;;;;;;5018181;28;20053;-79
2023/04/24 10:20:47;;;;;;;21.60;14.43;;;9.80;99.90;;;;;;5017935;28;20056;-79
2023/04/24 10:23:14;;;;;;;20.25;14.65;;;9.70;99.90;;;;;;5035374;28;20049;-80
2023/04/24 10:25:40;;;;;;;17.42;13.23;;;9.70;99.90;;;;;;5018034;28;20058;-79
2023/04/24 10:28:06;;;;;;;22.05;14.98;;;9.60;99.90;;;;;;5017967;28;20187;-79
2023/04/24 10:30:35;;;;;;;21.55;14.77;;;9.60;99.90;;;;;;4985120;28;20140;-79
2023/04/24 10:33:06;;;;;;;19.23;12.95;;;9.60;99.90;;;;;;5017946;28;20366;-79
2023/04/24 10:35:37;;;;;;;17.63;12.15;;;9.60;99.90;;;;;;5008286;28;20539;-80
2023/04/24 10:38:11;;;;;;;18.38;12.63;;;9.70;99.90;;;;;;4982032;28;20192;-79
2023/04/24 10:40:37;;;;;;;19.50;13.05;;;9.70;99.90;;;;;;4998215;28;20061;-79
2023/04/24 10:43:06;;;;;;;17.40;10.77;;;9.70;99.90;;;;;;4981627;28;20045;-80
2023/04/24 10:45:32;;;;;;;16.52;10.40;;;9.80;99.90;;;;;;4981839;28;20077;-82
2023/04/24 10:48:10;;;;;;;16.92;10.70;;;9.80;99.90;;;;;;4998011;28;20093;-80
2023/04/24 10:50:43;;;;;;;15.35;9.43;;;9.90;99.90;;;;;;4982113;28;20503;-78
2023/04/24 11:01:30;;;;;;;16.38;8.23;;;10.00;99.90;;;;;;4889988;22;20143;-78
2023/04/24 11:03:59;;;;;;;16.30;8.95;;;9.90;99.90;;;;;;5008090;28;20522;-80
2023/04/24 11:06:36;;;;;;;14.05;7.82;;;9.90;99.90;;;;;;5009864;28;20056;-79
2023/04/24 11:09:15;;;;;;;15.15;7.63;;;9.90;99.90;;;;;;5010047;28;20046;-80
2023/04/24 11:11:46;;;;;;;14.95;7.78;;;9.80;99.90;;;;;;5010201;28;20089;-80
2023/04/24 11:14:15;;;;;;;16.47;6.30;;;9.70;99.90;;;;;;5026040;28;20045;-81
2023/04/24 11:16:57;;;;;;;16.75;6.30;;;9.70;99.90;;;;;;5025951;28;20054;-81
2023/04/24 11:19:28;;;;;;;;;;;9.70;99.90;;;;;;5026770;28;20062;-81
2023/04/24 11:22:02;;;;;;;14.50;5.63;;;9.60;99.90;;;;;;5042980;28;19921;-80
2023/04/24 11:24:32;;;;;;;12.80;5.47;;;9.60;99.90;;;;;;5026323;28;20050;-80
2023/04/24 11:27:20;;;;;;;11.75;5.03;;;9.70;99.90;;;;;;5026260;28;20052;-80
2023/04/24 11:30:02;;;;;;;14.05;5.38;;;9.70;99.90;;;;;;5026343;28;20054;-80
2023/04/24 11:32:28;;;;;;;14.52;4.95;;;9.80;99.90;;;;;;5009832;28;20042;-81
2023/04/24 11:35:05;;;;;;;13.38;4.70;;;9.80;99.90;;;;;;5026079;28;20038;-80
2023/04/24 11:37:42;;;;;;;14.25;5.22;;;10.00;99.90;;;;;;5009772;28;20394;-80
2023/04/24 11:40:15;;;;;;;12.90;4.75;;;10.10;99.90;;;;;;5025926;28;20048;-79
2023/04/24 11:42:43;;;;;;;12.63;4.13;;;9.80;99.90;;;;;;5009263;28;20042;-80
2023/04/24 11:45:23;;;;;;;16.80;4.88;;;10.10;99.90;;;;;;5025498;28;20042;-80
2023/04/24 11:47:49;;;;;;;10.68;4.13;;;10.10;99.90;;;;;;5025941;28;20493;-80
2023/04/24 11:50:17;;;;;;;13.10;4.20;;;9.90;99.90;;;;;;5010448;28;20052;-80
2023/04/24 11:52:45;;;;;;;13.32;4.07;;;9.90;99.90;;;;;;4974273;28;20436;-80
2023/04/24 11:55:13;;;;;;;14.23;4.10;;;9.90;99.90;;;;;;5011620;28;20548;-80
2023/04/24 11:57:44;;;;;;;12.57;3.55;;;10.00;99.90;;;;;;5025372;28;20061;-80
2023/04/24 12:00:15;;;;;;;10.43;3.58;;;9.90;99.90;;;;;;5008668;28;20054;-79
2023/04/24 12:02:41;;;;;;;14.10;3.72;;;10.00;99.90;;;;;;5008990;28;20054;-82
2023/04/24 12:05:07;;;;;;;11.20;3.50;;;10.10;99.90;;;;;;5009136;28;20060;-81
2023/04/24 12:07:42;;;;;;;12.82;3.78;;;10.00;99.90;;;;;;5025607;28;20073;-81
2023/04/24 12:10:09;;;;;;;10.27;3.42;;;10.10;99.90;;;;;;5042194;28;20060;-82
2023/04/24 12:12:35;;;;;;;10.13;3.13;;;10.20;99.90;;;;;;5013291;28;20385;-81
2023/04/24 12:15:01;;;;;;;11.98;3.30;;;10.20;99.90;;;;;;4979750;28;20054;-81
2023/04/24 12:17:33;;;;;;;10.73;3.60;;;10.30;99.90;;;;;;5012255;28;20098;-81
2023/04/24 12:20:00;;;;;;;10.60;3.13;;;10.30;99.90;;;;;;5012080;28;20050;-82
2023/04/24 12:22:26;;;;;;;12.93;3.20;;;10.30;99.90;;;;;;4995331;28;20042;-82
2023/04/24 12:25:00;;;;;;;13.18;3.30;;;10.30;99.90;;;;;;4995732;28;20049;-83
2023/04/24 12:27:28;;;;;;;9.57;2.85;;;10.20;99.90;;;;;;4995741;28;20418;-83
2023/04/24 12:29:56;;;;;;;10.32;2.80;;;10.20;99.90;;;;;;5011645;28;20057;-83
2023/04/24 12:32:23;;;;;;;9.77;3.10;;;10.10;99.90;;;;;;5011656;28;20042;-82
2023/04/24 12:34:51;;;;;;;9.60;2.85;;;10.00;99.90;;;;;;4979451;28;20050;-83
2023/04/24 12:37:17;;;;;;;10.35;2.60;;;10.00;99.90;;;;;;5012050;28;20054;-83
2023/04/24 12:40:01;;;;;;;12.02;2.47;;;9.90;99.90;;;;;;5011741;28;20038;-82
2023/04/24 12:42:31;;;;;;;8.50;2.30;;;9.90;99.90;;;;;;4995429;28;20121;-82
2023/04/24 12:44:59;;;;;;;9.70;2.65;;;9.90;99.90;;;;;;5011639;28;20049;-81
2023/04/24 12:47:26;;;;;;;8.85;2.50;;;10.00;99.90;;;;;;5009694;28;20116;-82
2023/04/24 12:49:52;;;;;;;11.48;2.60;;;10.10;99.90;;;;;;5011615;28;20534;-82
2023/04/24 12:52:21;;;;;;;9.40;2.25;;;10.20;99.90;;;;;;4995067;28;20038;-82
2023/04/24 12:54:47;;;;;;;9.18;2.55;;;10.10;99.90;;;;;;4995268;28;20128;-82